createdAt,value
2023-01-05T00:02:02.180Z,99662.47
2023-01-05T00:04:31.836Z,99670.19
2023-01-05T00:06:58.608Z,99679.59
2023-01-05T00:09:25.544Z,99686.56
2023-01-05T00:12:10.575Z,99689.25
2023-01-05T00:14:58.521Z,99672.16
2023-01-05T00:23:32.025Z,99684.13
2023-01-05T00:25:58.893Z,99691.50
2023-01-05T00:28:25.561Z,99683.06
2023-01-05T00:30:55.504Z,99701.16
2023-01-05T00:33:22.384Z,99720.97
2023-01-05T00:35:57.388Z,99704.41
2023-01-05T00:38:26.733Z,99688.13
2023-01-05T00:40:55.589Z,99682.94
2023-01-05T00:43:28.691Z,99699.66
2023-01-05T00:45:55.391Z,99702.19
2023-01-05T00:48:26.647Z,99702.00
2023-01-05T00:50:53.466Z,99695.28
2023-01-05T00:53:24.073Z,99694.13
2023-01-05T00:56:00.192Z,99708.59
2023-01-05T00:58:35.750Z,99694.09
2023-01-05T01:01:09.179Z,99699.25
2023-01-05T01:03:41.487Z,99705.22
2023-01-05T01:06:08.201Z,99718.97
2023-01-05T01:08:34.953Z,99704.91
2023-01-05T01:11:10.426Z,99724.00
2023-01-05T01:13:38.970Z,99723.16
2023-01-05T01:16:14.339Z,99714.06
2023-01-05T01:18:49.698Z,99719.78
2023-01-05T01:21:21.858Z,99723.91
2023-01-05T01:23:51.433Z,99715.72
2023-01-05T01:26:20.493Z,99720.03
2023-01-05T01:28:48.697Z,99730.34
2023-01-05T01:31:15.868Z,99737.88
2023-01-05T01:33:44.026Z,99733.03
2023-01-05T01:36:10.912Z,99736.38
2023-01-05T01:38:38.155Z,99733.47
2023-01-05T01:41:05.452Z,99740.53
2023-01-05T01:43:53.071Z,99741.53
2023-01-05T01:46:28.110Z,99727.13
2023-01-05T01:49:08.887Z,99736.16
2023-01-05T01:51:50.560Z,99740.06
2023-01-05T01:54:21.337Z,99753.34
2023-01-05T01:56:55.696Z,99737.31
2023-01-05T01:59:30.264Z,99754.44
2023-01-05T02:02:04.300Z,99751.28
2023-01-05T02:04:38.119Z,99748.75
2023-01-05T02:07:11.270Z,99748.69
2023-01-05T02:09:38.683Z,99748.69
2023-01-05T02:12:38.074Z,99750.97
2023-01-05T02:15:45.125Z,99746.47
2023-01-05T02:18:50.363Z,99762.59
2023-01-05T02:21:35.793Z,99755.38
2023-01-05T02:24:11.138Z,99757.00
2023-01-05T02:27:20.988Z,99745.91
2023-01-05T02:30:08.926Z,99748.28
2023-01-05T02:33:34.810Z,99750.66
2023-01-05T02:36:45.907Z,99756.50
2023-01-05T02:39:25.709Z,99748.97
2023-01-05T02:42:27.192Z,99753.50
2023-01-05T02:44:54.517Z,99748.66
2023-01-05T02:47:28.006Z,99743.59
2023-01-05T02:50:10.884Z,99755.97
2023-01-05T02:53:09.934Z,99749.44
2023-01-05T02:55:48.970Z,99753.28
2023-01-05T02:58:32.114Z,99742.53
2023-01-05T03:01:05.508Z,99750.66
2023-01-05T03:03:43.588Z,99753.84
2023-01-05T03:06:48.467Z,99758.13
2023-01-05T03:09:20.173Z,99769.66
2023-01-05T03:12:51.090Z,99769.88
2023-01-05T03:15:34.163Z,99758.34
2023-01-05T03:18:10.216Z,99762.69
2023-01-05T03:20:50.861Z,99768.25
2023-01-05T03:23:41.672Z,99768.94
2023-01-05T03:26:31.676Z,99772.16
2023-01-05T03:29:28.355Z,99772.41
2023-01-05T03:32:35.949Z,99785.06
2023-01-05T03:35:37.550Z,99770.47
2023-01-05T03:38:42.755Z,99792.06
2023-01-05T03:41:20.721Z,99775.78
2023-01-05T03:43:52.899Z,99777.63
2023-01-05T03:46:25.340Z,99778.69
2023-01-05T03:48:52.567Z,99779.53
2023-01-05T03:51:21.904Z,99780.91
2023-01-05T03:53:48.704Z,99794.28
2023-01-05T03:56:15.450Z,99806.75
2023-01-05T03:58:42.106Z,99792.94
2023-01-05T04:01:08.995Z,99818.09
2023-01-05T04:03:35.955Z,99785.19
2023-01-05T04:06:02.794Z,99799.69
2023-01-05T04:08:32.193Z,99829.81
2023-01-05T04:11:16.826Z,99812.25
2023-01-05T04:13:46.886Z,99823.16
2023-01-05T04:16:14.764Z,99818.44
2023-01-05T04:18:41.569Z,99824.44
2023-01-05T04:21:08.564Z,99826.63
2023-01-05T04:23:35.984Z,99815.28
2023-01-05T04:26:04.093Z,99817.56
2023-01-05T04:28:30.917Z,99824.44
2023-01-05T04:30:57.966Z,99840.75
2023-01-05T04:33:31.653Z,99841.34
2023-01-05T04:35:58.505Z,99842.03
2023-01-05T04:38:28.154Z,99860.22
2023-01-05T04:40:54.854Z,99838.53
2023-01-05T04:43:21.633Z,99839.69
2023-01-05T04:45:49.355Z,99846.63
2023-01-05T04:48:17.335Z,99850.31
2023-01-05T04:50:44.407Z,99843.19
2023-01-05T04:53:11.543Z,99849.09
2023-01-05T04:55:38.209Z,99855.38
2023-01-05T04:58:11.543Z,99841.22
2023-01-05T05:00:43.961Z,99855.84
2023-01-05T05:03:10.799Z,99837.47
2023-01-05T05:05:48.739Z,99870.50
2023-01-05T05:08:15.472Z,99842.13
2023-01-05T05:10:42.282Z,99839.13
2023-01-05T05:13:08.959Z,99858.16
2023-01-05T05:15:38.856Z,99854.69
2023-01-05T05:18:09.717Z,99847.56
2023-01-05T05:20:41.468Z,99856.06
2023-01-05T05:23:08.247Z,99856.25
2023-01-05T05:25:35.093Z,99855.31
2023-01-05T05:28:02.001Z,99857.22
2023-01-05T05:30:28.669Z,99872.47
2023-01-05T05:46:35.968Z,99867.44
2023-01-05T05:54:30.885Z,99868.09
2023-01-05T07:29:16.761Z,100095.00
2023-01-05T07:31:49.121Z,100091.75
2023-01-05T07:34:21.129Z,100124.16
2023-01-05T07:36:49.576Z,100130.75
2023-01-05T07:39:17.537Z,100136.09
2023-01-05T07:41:47.929Z,100142.94
2023-01-05T07:46:59.266Z,100162.81
2023-01-05T07:54:48.575Z,100191.31
2023-01-05T07:57:15.330Z,100196.84
2023-01-05T07:59:42.144Z,100200.91
2023-01-05T08:02:13.727Z,100217.22
2023-01-05T08:04:42.830Z,100232.94
2023-01-05T08:07:13.936Z,100242.69
2023-01-05T08:10:02.025Z,100243.13
2023-01-05T08:12:33.314Z,100251.50
2023-01-05T08:15:02.857Z,100269.78
2023-01-05T08:17:35.606Z,100279.81
2023-01-05T08:20:02.285Z,100283.91
2023-01-05T08:22:34.134Z,100297.03
2023-01-05T08:25:02.810Z,100301.81
2023-01-05T08:27:34.762Z,100310.59
2023-01-05T08:30:04.743Z,100320.03
2023-01-05T08:32:31.513Z,100329.66
2023-01-05T08:34:59.544Z,100335.50
2023-01-05T08:37:35.396Z,100331.81
2023-01-05T08:40:03.014Z,100347.84
2023-01-05T08:42:35.391Z,100353.72
2023-01-05T08:45:11.488Z,100374.94
2023-01-05T08:47:38.394Z,100376.41
2023-01-05T08:50:07.184Z,100396.56
2023-01-05T08:52:46.461Z,100399.22
2023-01-05T08:55:15.183Z,100405.03
2023-01-05T08:57:42.045Z,100413.50
2023-01-05T09:00:13.456Z,100412.78
2023-01-05T09:02:44.880Z,100409.16
2023-01-05T09:05:12.158Z,100416.06
2023-01-05T09:07:42.007Z,100431.47
2023-01-05T09:10:09.517Z,100431.72
2023-01-05T09:12:37.456Z,100444.09
2023-01-05T09:15:06.814Z,100452.78
2023-01-05T09:17:38.230Z,100440.91
2023-01-05T09:20:11.538Z,100461.19
2023-01-05T09:22:38.256Z,100457.66
2023-01-05T09:25:06.099Z,100477.72
2023-01-05T09:27:32.958Z,100475.53
2023-01-05T09:29:59.666Z,100489.88
2023-01-05T09:32:26.414Z,100487.91
2023-01-05T09:34:53.147Z,100504.31
2023-01-05T09:37:20.326Z,100513.94
2023-01-05T09:39:48.003Z,100528.63
2023-01-05T09:42:26.184Z,100527.91
2023-01-05T09:45:05.136Z,100534.63
2023-01-05T09:47:46.900Z,100543.22
2023-01-05T09:50:31.482Z,100547.53
2023-01-05T09:53:01.503Z,100555.91
2023-01-05T09:55:37.153Z,100561.63
2023-01-05T09:58:30.173Z,100563.47
2023-01-05T10:01:15.880Z,100575.03
2023-01-05T10:04:13.100Z,100581.34
2023-01-05T10:06:49.351Z,100590.59
2023-01-05T10:09:29.688Z,100598.50
2023-01-05T10:13:08.984Z,100595.19
2023-01-05T10:15:51.279Z,100607.47
2023-01-05T10:18:25.413Z,100613.22
2023-01-05T10:21:26.730Z,100626.09
2023-01-05T10:24:35.154Z,100632.28
2023-01-05T10:27:31.427Z,100629.88
2023-01-05T10:30:27.460Z,100633.88
2023-01-05T10:40:44.427Z,100653.47
2023-01-05T10:43:42.327Z,100648.47
2023-01-05T10:46:32.584Z,100655.06
2023-01-05T10:49:03.536Z,100656.16
2023-01-05T10:51:42.944Z,100666.50
2023-01-05T10:54:44.356Z,100667.81
2023-01-05T10:57:34.550Z,100671.59
2023-01-05T11:00:42.969Z,100675.47
2023-01-05T11:03:18.038Z,100678.88
2023-01-05T11:05:48.909Z,100681.09
2023-01-05T11:08:29.197Z,100675.72
2023-01-05T11:11:10.728Z,100674.00
2023-01-05T11:13:53.237Z,100675.00
2023-01-05T11:16:34.754Z,100683.28
2023-01-05T11:19:18.380Z,100682.66
2023-01-05T11:21:49.040Z,100694.00
2023-01-05T11:24:38.627Z,100694.31
2023-01-05T11:27:20.594Z,100695.19
2023-01-05T11:30:21.360Z,100695.31
2023-01-05T11:32:48.532Z,100697.72
2023-01-05T11:35:30.544Z,100697.88
2023-01-05T11:37:57.966Z,100707.47
2023-01-05T11:40:34.366Z,100716.84
2023-01-05T11:43:12.405Z,100727.81
2023-01-05T11:51:43.153Z,100731.53
2023-01-05T11:54:38.242Z,100733.44
2023-01-05T11:57:20.448Z,100743.03
2023-01-05T11:59:47.431Z,100746.69
2023-01-05T12:03:10.381Z,100764.44
2023-01-05T12:05:55.532Z,100759.72
2023-01-05T12:08:44.032Z,100752.19
2023-01-05T12:11:27.739Z,100752.22
2023-01-05T12:14:21.723Z,100760.50
2023-01-05T12:16:57.104Z,100766.56
2023-01-05T12:19:45.735Z,100778.63
2023-01-05T12:22:58.548Z,100773.28
2023-01-05T12:26:01.976Z,100781.75
2023-01-05T12:35:57.969Z,100804.16
2023-01-05T12:38:48.974Z,100800.66
2023-01-05T12:42:37.892Z,100802.34
2023-01-05T12:45:45.628Z,100804.44
2023-01-05T12:48:34.545Z,100806.84
2023-01-05T12:51:24.721Z,100820.66
2023-01-05T12:54:26.747Z,100826.53
2023-01-05T12:57:49.409Z,100826.19
2023-01-05T13:00:21.189Z,100839.78
2023-01-05T13:03:00.518Z,100834.78
2023-01-05T13:06:48.061Z,100842.84
2023-01-05T13:09:30.112Z,100848.34
2023-01-05T13:12:13.832Z,100850.56
2023-01-05T13:15:16.634Z,100858.56
2023-01-05T13:17:52.583Z,100844.81
2023-01-05T13:21:01.296Z,100846.13
2023-01-05T13:23:55.420Z,100854.16
2023-01-05T13:26:23.067Z,100846.81
2023-01-05T13:28:55.841Z,100862.31
2023-01-05T13:32:07.279Z,100851.31
2023-01-05T13:35:49.786Z,100855.72
2023-01-05T13:38:59.903Z,100862.69
2023-01-05T13:42:15.559Z,100869.59
2023-01-05T13:44:44.919Z,100882.75
2023-01-05T13:47:45.564Z,100887.03
2023-01-05T13:50:45.646Z,100884.66
2023-01-05T13:53:30.723Z,100888.53
2023-01-05T13:56:12.934Z,100889.38
2023-01-05T13:59:44.438Z,100890.59
2023-01-05T14:02:56.995Z,100904.38
2023-01-05T14:05:34.800Z,100904.78
2023-01-05T14:08:14.602Z,100930.78
2023-01-05T14:11:22.610Z,100934.56
2023-01-05T14:14:08.251Z,100946.13
2023-01-05T14:16:36.434Z,100950.81
2023-01-05T14:19:57.898Z,100950.31
2023-01-05T14:22:48.321Z,100947.19
2023-01-05T14:25:40.040Z,100960.63
2023-01-05T14:28:37.640Z,100980.75
2023-01-05T14:31:21.635Z,100982.25
2023-01-05T14:33:57.516Z,100991.28
2023-01-05T14:37:02.672Z,100988.00
2023-01-05T14:39:42.966Z,100987.47
2023-01-05T14:42:32.154Z,100990.72
2023-01-05T14:45:07.607Z,100987.50
2023-01-05T14:47:40.821Z,100995.88
2023-01-05T14:50:40.432Z,101004.19
2023-01-05T14:53:09.858Z,101020.25
2023-01-05T14:56:01.561Z,101023.13
2023-01-05T14:58:37.659Z,101017.31
2023-01-05T15:01:32.315Z,101030.66
2023-01-05T15:04:18.344Z,101041.88
2023-01-05T15:07:20.952Z,101051.28
2023-01-05T15:10:29.454Z,101051.34
2023-01-05T15:14:19.912Z,101059.00
2023-01-05T15:17:45.357Z,101075.72
2023-01-05T15:21:01.859Z,101066.53
2023-01-05T15:23:59.691Z,101075.41
2023-01-05T15:27:27.049Z,101074.03
2023-01-05T15:30:27.406Z,101075.59
2023-01-05T15:33:40.728Z,101081.34
2023-01-05T15:36:32.170Z,101074.28
2023-01-05T15:38:59.154Z,101080.81
2023-01-05T15:41:29.260Z,101090.63
2023-01-05T15:43:56.613Z,101091.06
2023-01-05T15:46:34.415Z,101095.66
2023-01-05T15:49:01.625Z,101105.47
2023-01-05T15:51:33.139Z,101107.22
2023-01-05T15:54:05.393Z,101112.75
2023-01-05T15:56:42.416Z,101105.16
2023-01-05T15:59:40.790Z,101104.03
2023-01-05T16:02:37.017Z,101110.78
2023-01-05T16:05:19.512Z,101101.66
2023-01-05T16:08:06.183Z,101111.34
2023-01-05T16:10:44.285Z,101111.19
2023-01-05T16:13:35.198Z,101116.22
2023-01-05T16:16:15.895Z,101109.75
2023-01-05T16:18:57.491Z,101108.59
2023-01-05T16:21:36.863Z,101107.66
2023-01-05T16:24:33.620Z,101106.91
2023-01-05T16:27:04.746Z,101112.13
2023-01-05T16:29:45.817Z,101115.56
2023-01-05T16:32:38.155Z,101111.94
2023-01-05T16:35:23.826Z,101107.25
2023-01-05T16:38:22.541Z,101110.41
2023-01-05T16:40:49.594Z,101110.88
2023-01-05T16:43:19.026Z,101100.59
2023-01-05T16:45:45.970Z,101108.78
2023-01-05T16:48:35.595Z,101106.38
2023-01-05T16:51:12.085Z,101111.72
2023-01-05T16:53:52.270Z,101107.34
2023-01-05T16:56:58.372Z,101108.47
2023-01-05T16:59:44.737Z,101106.53
2023-01-05T17:02:52.556Z,101104.91
2023-01-05T17:05:28.153Z,101107.81
2023-01-05T17:08:20.142Z,101105.34
2023-01-05T17:10:48.429Z,101106.59
2023-01-05T17:13:21.293Z,101109.25
2023-01-05T17:15:52.145Z,101104.41
2023-01-05T17:18:27.181Z,101114.19
2023-01-05T17:20:57.456Z,101117.56
2023-01-05T17:23:31.290Z,101120.25
2023-01-05T17:26:09.751Z,101119.25
2023-01-05T17:28:37.571Z,101125.34
2023-01-05T17:31:07.086Z,101134.72
2023-01-05T17:33:33.725Z,101133.75
2023-01-05T17:36:03.720Z,101128.25
2023-01-05T17:38:30.577Z,101135.53
2023-01-05T17:40:58.521Z,101143.09
2023-01-05T17:43:27.723Z,101133.41
2023-01-05T17:45:55.087Z,101145.69
2023-01-05T17:48:21.794Z,101140.19
2023-01-05T17:50:52.111Z,101146.09
2023-01-05T17:53:20.997Z,101142.94
2023-01-05T17:55:50.546Z,101138.31
2023-01-05T17:58:17.408Z,101133.59
2023-01-05T18:00:49.134Z,101143.72
2023-01-05T18:03:22.734Z,101151.03
2023-01-05T18:05:53.979Z,101155.72
2023-01-05T18:08:21.735Z,101152.72
2023-01-05T18:10:48.811Z,101151.63
2023-01-05T18:13:18.149Z,101158.31
2023-01-05T18:15:50.960Z,101147.31
2023-01-05T18:18:18.578Z,101148.75
2023-01-05T18:20:45.360Z,101152.03
2023-01-05T18:23:12.427Z,101151.75
2023-01-05T18:25:39.963Z,101155.00
2023-01-05T18:28:09.124Z,101159.13
2023-01-05T18:30:43.193Z,101164.00
2023-01-05T18:35:44.057Z,101155.19
2023-01-05T18:38:13.439Z,101156.72
2023-01-05T18:40:43.354Z,101172.22
2023-01-05T18:43:10.013Z,101160.66
2023-01-05T18:45:48.851Z,101167.78
2023-01-05T18:48:15.673Z,101166.25
2023-01-05T18:50:44.562Z,101164.44
2023-01-05T18:53:12.440Z,101175.84
2023-01-05T18:55:42.653Z,101181.09
2023-01-05T18:58:11.692Z,101181.69
2023-01-05T19:00:42.169Z,101179.59
2023-01-05T19:03:14.087Z,101178.53
2023-01-05T19:05:44.749Z,101174.66
2023-01-05T19:08:13.780Z,101171.81
2023-01-05T19:10:41.547Z,101176.94
2023-01-05T19:13:08.898Z,101168.78
2023-01-05T19:15:37.929Z,101179.16
2023-01-05T19:18:08.851Z,101179.06
2023-01-05T19:20:35.641Z,101177.06
2023-01-05T19:47:26.930Z,101180.41
2023-01-05T19:49:54.149Z,101179.94
2023-01-05T21:05:44.852Z,101188.88
2023-01-05T21:08:11.659Z,101190.00
2023-01-05T21:10:38.906Z,101196.41
2023-01-05T21:13:31.548Z,101199.25
2023-01-05T21:16:00.909Z,101192.88
2023-01-05T21:18:28.003Z,101198.38
2023-01-05T21:20:54.808Z,101192.88
2023-01-05T21:23:21.769Z,101190.03
2023-01-05T21:26:07.054Z,101186.91
2023-01-05T21:28:37.112Z,101186.28
2023-01-05T21:31:12.676Z,101177.06
2023-01-05T21:33:41.142Z,101181.97
2023-01-05T21:36:21.786Z,101180.84
2023-01-05T21:39:03.841Z,101181.69
2023-01-05T21:41:54.267Z,101180.72
2023-01-05T21:44:23.089Z,101182.34
2023-01-05T21:46:50.963Z,101168.16
2023-01-05T21:49:20.439Z,101168.16
2023-01-05T21:52:06.661Z,101159.13
2023-01-05T21:54:51.742Z,101161.72
2023-01-05T21:57:18.868Z,101162.66
2023-01-05T21:59:45.788Z,101150.97
2023-01-05T22:02:15.329Z,101139.34
2023-01-05T22:04:43.739Z,101138.88
2023-01-05T22:07:11.224Z,101136.88
2023-01-05T22:09:39.093Z,101134.13
2023-01-05T22:12:10.853Z,101145.44
2023-01-05T22:14:38.755Z,101145.28
2023-01-05T22:17:08.650Z,101147.66
2023-01-05T22:19:36.008Z,101143.09
2023-01-05T22:22:03.669Z,101149.75
2023-01-05T22:24:30.362Z,101136.22
2023-01-05T22:26:57.098Z,101130.69
2023-01-05T22:29:24.757Z,101140.97
2023-01-05T22:31:51.607Z,101130.78
2023-01-05T22:34:18.642Z,101138.59
2023-01-05T22:36:45.547Z,101141.91
2023-01-05T22:39:12.756Z,101152.41
2023-01-05T22:41:39.532Z,101142.22
2023-01-05T22:44:10.020Z,101137.63
2023-01-05T22:46:36.634Z,101135.50
2023-01-05T22:49:06.437Z,101134.38
2023-01-05T22:51:37.280Z,101125.31
2023-01-05T22:54:07.443Z,101110.06
2023-01-05T22:56:35.682Z,101109.00
2023-01-05T22:59:03.045Z,101121.59
2023-01-05T23:01:35.922Z,101118.69
2023-01-05T23:04:07.111Z,101117.94
2023-01-05T23:06:34.451Z,101119.75
2023-01-05T23:09:04.768Z,101109.94
2023-01-05T23:11:38.201Z,101100.13
2023-01-05T23:14:08.838Z,101100.69
2023-01-05T23:16:37.442Z,101092.78
2023-01-05T23:19:08.210Z,101091.72
2023-01-05T23:21:35.235Z,101094.28
2023-01-05T23:24:02.296Z,101085.44
2023-01-05T23:26:30.370Z,101086.81
2023-01-05T23:28:57.252Z,101085.75
2023-01-05T23:31:25.254Z,101085.75
2023-01-05T23:33:52.318Z,101083.09
2023-01-05T23:36:21.651Z,101084.81
2023-01-05T23:38:51.503Z,101079.47
2023-01-05T23:41:27.617Z,101067.84
2023-01-05T23:43:54.273Z,101070.19
2023-01-05T23:46:21.964Z,101056.97
2023-01-05T23:48:53.305Z,101053.41
2023-01-05T23:51:24.485Z,101053.53
2023-01-05T23:53:53.492Z,101060.09
2023-01-05T23:56:29.001Z,101059.22
2023-01-05T23:59:05.691Z,101064.38
